Terminal Aerodrome Forecast
Issued by NWS Sterling, VA

Current Version | Previous Version | Graphics & Text | Print | Product List | Glossary On
Versions: 1 2 3 4 5 6 7 8 9 10 11 12 13 14 15 16 17 18 19 20 21
000
FTUS41 KLWX 060231 AAA
TAFMRB
TAF AMD
KMRB 060231Z 0603/0624 21006KT P6SM BKN130
     FM060600 00000KT 3SM BR BKN200
     FM060900 34005KT 2SM BR BKN200
     FM061300 01005KT P6SM BKN150
     FM061900 07005KT P6SM BKN050
     FM062100 10009KT P6SM BKN050=

USA.gov is the U.S. government's official web portal to all federal, state and local government web resources and services.